Tuckahoe, NY

6:57 AM EST on December 05, 2016 (GMT -0500)
Fleetwood | | Change Station

Elev 128 ft 40.93 °N, 73.83 °W | Updated 12 seconds ago

Light Rain
Light Rain Mist
37.8 °F
Feels Like 38 °F
N
0.0
Wind Variable Wind from SE
Gusts 0.0 mph

Today
High -- | Low -- °F
--% Chance of Precip.
Yesterday
High -- | Low -- °F
Precip. -- in
Pressure 30.01 in
Visibility 5.0 miles
Clouds Few 1000 ft
Overcast 1500 ft
Windchill 38 °F
Dew Point 38 °F
Humidity 99%
Rainfall 0.18 in
Snow Depth Not available.
7:05 AM 4:27 PM
Waxing Crescent, 31% visible
METAR KHPN 051056Z 17004KT 5SM -RA BR FEW010 OVC015 03/02 A2999 RMK AO2 SLP163 P0004 T00280017
Pressure 30.01 in
Visibility 5.0 miles
Clouds Few 1000 ft
Overcast 1500 ft
Windchill 38 °F
Dew Point 38 °F
Humidity 99%
Rainfall 0.18 in
Snow Depth Not available.
7:05 AM 4:27 PM
Waxing Crescent, 31% visible
METAR KHPN 051056Z 17004KT 5SM -RA BR FEW010 OVC015 03/02 A2999 RMK AO2 SLP163 P0004 T00280017

10-Day Weather Forecast

Almanac

Astronomy

Dec. 05, 2016 Rise Set
Actual Time
Civil Twilight
Nautical Twilight
Astronomical Twilight
Moon
Length of Visible Light
Length of Day
Tomorrow will be .
, % of the Moon is Illuminated

Today's Extremes

State Highs State Lows

Community

WunderPhotos

Upload Photos

1,955,777 photos uploaded!

WunderBlog® & News

Nearby

Air Quality

  Air Quality AQ Index Pollutant
Not available.

Snow Depth

Station Depth Elevation

Earthquake Activity

City Distance Mag. Time & Date
Minimum magnitude displayed is 2.5.

Coastal Water Temperatures

Place Temperature

Stations

Nearby Weather Stations

Station Location Temp. Windchill Dew Point Humidity Wind Precip. Elev Updated Type
                   

Watches & Warnings

There are currently no watches in effect.